sensor_id;sensor_type;location;lat;lon;timestamp;P1;durP1;ratioP1;P2;durP2;ratioP2
42802;SDS011;28447;48.682;9.022;2023-12-04T05:00:26;23.03;;;11.97;;
42802;SDS011;28447;48.682;9.022;2023-12-04T05:02:52;22.07;;;10.30;;
42802;SDS011;28447;48.682;9.022;2023-12-04T05:05:18;24.80;;;10.83;;
42802;SDS011;28447;48.682;9.022;2023-12-04T05:07:44;21.70;;;10.53;;
42802;SDS011;28447;48.682;9.022;2023-12-04T05:10:10;25.57;;;12.00;;
42802;SDS011;28447;48.682;9.022;2023-12-04T05:12:35;21.23;;;11.03;;
42802;SDS011;28447;48.682;9.022;2023-12-04T05:15:01;20.57;;;11.03;;
42802;SDS011;28447;48.682;9.022;2023-12-04T05:17:28;20.27;;;9.80;;
42802;SDS011;28447;48.682;9.022;2023-12-04T05:19:54;21.60;;;10.70;;
42802;SDS011;28447;48.682;9.022;2023-12-04T05:22:20;20.03;;;10.30;;
42802;SDS011;28447;48.682;9.022;2023-12-04T05:24:46;20.60;;;10.40;;
42802;SDS011;28447;48.682;9.022;2023-12-04T05:27:12;20.00;;;11.00;;
42802;SDS011;28447;48.682;9.022;2023-12-04T05:29:38;18.47;;;10.37;;
42802;SDS011;28447;48.682;9.022;2023-12-04T05:32:04;21.33;;;10.27;;
42802;SDS011;28447;48.682;9.022;2023-12-04T05:34:30;18.27;;;10.00;;
42802;SDS011;28447;48.682;9.022;2023-12-04T05:36:56;20.63;;;10.23;;
42802;SDS011;28447;48.682;9.022;2023-12-04T05:39:22;21.50;;;12.33;;
42802;SDS011;28447;48.682;9.022;2023-12-04T05:41:48;21.30;;;10.53;;
42802;SDS011;28447;48.682;9.022;2023-12-04T05:44:14;18.40;;;10.07;;
42802;SDS011;28447;48.682;9.022;2023-12-04T05:46:40;20.63;;;11.67;;
42802;SDS011;28447;48.682;9.022;2023-12-04T05:49:06;21.10;;;11.10;;
42802;SDS011;28447;48.682;9.022;2023-12-04T05:51:32;19.90;;;11.07;;
42802;SDS011;28447;48.682;9.022;2023-12-04T05:53:58;17.40;;;9.90;;
42802;SDS011;28447;48.682;9.022;2023-12-04T05:56:24;22.43;;;11.07;;
42802;SDS011;28447;48.682;9.022;2023-12-04T05:58:49;20.93;;;10.10;;
42802;SDS011;28447;48.682;9.022;2023-12-04T06:01:15;19.03;;;10.20;;
42802;SDS011;28447;48.682;9.022;2023-12-04T06:03:41;23.50;;;10.67;;
42802;SDS011;28447;48.682;9.022;2023-12-04T06:06:07;24.90;;;11.93;;
42802;SDS011;28447;48.682;9.022;2023-12-04T06:08:33;19.07;;;9.40;;
42802;SDS011;28447;48.682;9.022;2023-12-04T06:10:59;19.93;;;11.33;;
42802;SDS011;28447;48.682;9.022;2023-12-04T06:13:25;19.33;;;10.10;;
42802;SDS011;28447;48.682;9.022;2023-12-04T06:15:51;18.27;;;9.77;;
42802;SDS011;28447;48.682;9.022;2023-12-04T06:18:18;21.33;;;11.43;;
42802;SDS011;28447;48.682;9.022;2023-12-04T06:20:45;21.83;;;12.10;;
42802;SDS011;28447;48.682;9.022;2023-12-04T06:23:11;24.97;;;12.20;;
42802;SDS011;28447;48.682;9.022;2023-12-04T06:25:37;23.43;;;11.20;;
42802;SDS011;28447;48.682;9.022;2023-12-04T06:28:04;21.63;;;10.93;;
42802;SDS011;28447;48.682;9.022;2023-12-04T06:30:30;22.43;;;11.17;;
42802;SDS011;28447;48.682;9.022;2023-12-04T06:32:56;19.13;;;10.50;;
42802;SDS011;28447;48.682;9.022;2023-12-04T06:35:22;21.87;;;10.83;;
42802;SDS011;28447;48.682;9.022;2023-12-04T06:37:48;19.37;;;9.90;;
42802;SDS011;28447;48.682;9.022;2023-12-04T06:40:15;20.50;;;10.97;;
42802;SDS011;28447;48.682;9.022;2023-12-04T06:42:42;16.13;;;9.33;;
42802;SDS011;28447;48.682;9.022;2023-12-04T06:45:08;21.47;;;10.50;;
42802;SDS011;28447;48.682;9.022;2023-12-04T06:47:34;17.43;;;10.20;;
42802;SDS011;28447;48.682;9.022;2023-12-04T06:50:01;18.43;;;10.23;;
42802;SDS011;28447;48.682;9.022;2023-12-04T06:52:27;19.90;;;10.23;;
42802;SDS011;28447;48.682;9.022;2023-12-04T06:54:53;20.27;;;11.33;;
42802;SDS011;28447;48.682;9.022;2023-12-04T06:57:19;19.87;;;9.90;;
42802;SDS011;28447;48.682;9.022;2023-12-04T06:59:45;20.90;;;10.77;;
42802;SDS011;28447;48.682;9.022;2023-12-04T07:02:11;20.37;;;9.37;;
42802;SDS011;28447;48.682;9.022;2023-12-04T07:04:37;15.47;;;9.53;;
42802;SDS011;28447;48.682;9.022;2023-12-04T07:07:04;20.60;;;11.10;;
42802;SDS011;28447;48.682;9.022;2023-12-04T07:09:34;20.03;;;10.33;;
42802;SDS011;28447;48.682;9.022;2023-12-04T07:12:00;16.70;;;10.63;;
42802;SDS011;28447;48.682;9.022;2023-12-04T07:14:27;19.17;;;9.63;;
42802;SDS011;28447;48.682;9.022;2023-12-04T07:16:53;19.30;;;10.10;;
42802;SDS011;28447;48.682;9.022;2023-12-04T07:19:19;20.27;;;10.77;;
42802;SDS011;28447;48.682;9.022;2023-12-04T07:21:46;16.30;;;8.60;;
42802;SDS011;28447;48.682;9.022;2023-12-04T07:24:12;20.93;;;9.80;;
42802;SDS011;28447;48.682;9.022;2023-12-04T07:26:38;20.00;;;9.60;;
42802;SDS011;28447;48.682;9.022;2023-12-04T07:29:04;21.33;;;11.17;;
42802;SDS011;28447;48.682;9.022;2023-12-04T07:31:30;17.10;;;9.83;;
42802;SDS011;28447;48.682;9.022;2023-12-04T07:33:56;17.60;;;9.23;;
42802;SDS011;28447;48.682;9.022;2023-12-04T07:36:22;21.90;;;9.83;;
42802;SDS011;28447;48.682;9.022;2023-12-04T07:38:50;18.60;;;10.77;;
42802;SDS011;28447;48.682;9.022;2023-12-04T07:41:17;20.67;;;10.40;;
42802;SDS011;28447;48.682;9.022;2023-12-04T07:43:44;21.90;;;10.60;;
42802;SDS011;28447;48.682;9.022;2023-12-04T07:46:10;16.80;;;10.10;;
42802;SDS011;28447;48.682;9.022;2023-12-04T07:48:36;23.90;;;11.20;;
42802;SDS011;28447;48.682;9.022;2023-12-04T07:51:03;19.20;;;10.27;;
42802;SDS011;28447;48.682;9.022;2023-12-04T07:53:29;21.43;;;10.87;;
42802;SDS011;28447;48.682;9.022;2023-12-04T07:55:55;22.00;;;12.43;;
42802;SDS011;28447;48.682;9.022;2023-12-04T07:58:21;18.67;;;10.33;;
42802;SDS011;28447;48.682;9.022;2023-12-04T08:00:47;19.50;;;10.10;;
42802;SDS011;28447;48.682;9.022;2023-12-04T08:03:13;25.33;;;11.70;;
42802;SDS011;28447;48.682;9.022;2023-12-04T08:05:39;19.67;;;10.10;;
42802;SDS011;28447;48.682;9.022;2023-12-04T08:08:05;21.90;;;11.67;;
42802;SDS011;28447;48.682;9.022;2023-12-04T08:10:31;18.33;;;10.83;;
42802;SDS011;28447;48.682;9.022;2023-12-04T08:12:57;20.07;;;12.00;;
42802;SDS011;28447;48.682;9.022;2023-12-04T08:15:24;20.13;;;11.20;;
42802;SDS011;28447;48.682;9.022;2023-12-04T08:17:50;19.50;;;11.60;;
42802;SDS011;28447;48.682;9.022;2023-12-04T08:20:16;15.87;;;9.70;;
42802;SDS011;28447;48.682;9.022;2023-12-04T08:22:42;18.70;;;10.63;;
42802;SDS011;28447;48.682;9.022;2023-12-04T08:25:11;22.37;;;11.10;;
42802;SDS011;28447;48.682;9.022;2023-12-04T08:27:37;17.27;;;9.33;;
42802;SDS011;28447;48.682;9.022;2023-12-04T08:30:06;18.33;;;10.07;;
42802;SDS011;28447;48.682;9.022;2023-12-04T08:32:33;17.87;;;9.27;;
42802;SDS011;28447;48.682;9.022;2023-12-04T08:34:59;18.43;;;9.43;;
42802;SDS011;28447;48.682;9.022;2023-12-04T08:37:25;14.97;;;8.90;;
42802;SDS011;28447;48.682;9.022;2023-12-04T08:39:51;15.93;;;8.93;;
42802;SDS011;28447;48.682;9.022;2023-12-04T08:42:18;15.93;;;8.80;;
42802;SDS011;28447;48.682;9.022;2023-12-04T08:44:44;16.60;;;9.90;;
42802;SDS011;28447;48.682;9.022;2023-12-04T08:47:12;16.90;;;8.60;;
42802;SDS011;28447;48.682;9.022;2023-12-04T08:49:39;17.03;;;10.43;;
42802;SDS011;28447;48.682;9.022;2023-12-04T08:52:06;16.00;;;9.53;;
42802;SDS011;28447;48.682;9.022;2023-12-04T08:54:32;20.53;;;10.87;;
42802;SDS011;28447;48.682;9.022;2023-12-04T08:56:59;17.30;;;11.20;;
42802;SDS011;28447;48.682;9.022;2023-12-04T08:59:25;18.17;;;9.87;;
42802;SDS011;28447;48.682;9.022;2023-12-04T09:01:51;18.50;;;10.20;;
42802;SDS011;28447;48.682;9.022;2023-12-04T09:04:17;17.30;;;10.57;;
42802;SDS011;28447;48.682;9.022;2023-12-04T09:06:43;15.87;;;9.77;;
42802;SDS011;28447;48.682;9.022;2023-12-04T09:09:09;18.97;;;10.50;;
42802;SDS011;28447;48.682;9.022;2023-12-04T09:11:39;16.80;;;11.10;;
42802;SDS011;28447;48.682;9.022;2023-12-04T09:14:06;20.63;;;11.30;;
42802;SDS011;28447;48.682;9.022;2023-12-04T09:16:31;21.43;;;12.03;;
42802;SDS011;28447;48.682;9.022;2023-12-04T09:18:57;21.77;;;11.10;;
42802;SDS011;28447;48.682;9.022;2023-12-04T09:21:23;18.87;;;10.80;;
42802;SDS011;28447;48.682;9.022;2023-12-04T09:23:50;19.30;;;11.37;;
42802;SDS011;28447;48.682;9.022;2023-12-04T09:26:16;20.37;;;11.07;;
42802;SDS011;28447;48.682;9.022;2023-12-04T09:28:42;18.30;;;10.60;;
42802;SDS011;28447;48.682;9.022;2023-12-04T09:31:08;18.80;;;11.40;;
42802;SDS011;28447;48.682;9.022;2023-12-04T09:33:34;18.00;;;11.37;;
42802;SDS011;28447;48.682;9.022;2023-12-04T09:36:03;19.43;;;11.40;;
42802;SDS011;28447;48.682;9.022;2023-12-04T09:38:29;22.10;;;11.40;;
42802;SDS011;28447;48.682;9.022;2023-12-04T09:40:58;26.93;;;12.63;;
42802;SDS011;28447;48.682;9.022;2023-12-04T09:43:24;20.33;;;11.07;;
42802;SDS011;28447;48.682;9.022;2023-12-04T09:45:51;19.60;;;11.00;;
42802;SDS011;28447;48.682;9.022;2023-12-04T09:48:18;23.03;;;11.30;;
42802;SDS011;28447;48.682;9.022;2023-12-04T09:50:46;19.43;;;10.83;;
42802;SDS011;28447;48.682;9.022;2023-12-04T09:53:13;16.60;;;10.20;;
42802;SDS011;28447;48.682;9.022;2023-12-04T09:55:41;19.17;;;11.50;;
42802;SDS011;28447;48.682;9.022;2023-12-04T09:58:13;20.03;;;11.50;;
42802;SDS011;28447;48.682;9.022;2023-12-04T10:00:41;22.00;;;11.40;;
42802;SDS011;28447;48.682;9.022;2023-12-04T10:03:11;17.77;;;10.80;;
42802;SDS011;28447;48.682;9.022;2023-12-04T10:05:40;21.20;;;11.93;;
42802;SDS011;28447;48.682;9.022;2023-12-04T10:08:08;18.80;;;11.20;;
42802;SDS011;28447;48.682;9.022;2023-12-04T10:10:34;18.80;;;10.37;;
42802;SDS011;28447;48.682;9.022;2023-12-04T10:13:03;17.17;;;9.77;;
42802;SDS011;28447;48.682;9.022;2023-12-04T10:15:29;18.30;;;9.27;;
42802;SDS011;28447;48.682;9.022;2023-12-04T10:17:55;16.10;;;9.87;;
42802;SDS011;28447;48.682;9.022;2023-12-04T10:20:21;15.00;;;9.57;;
42802;SDS011;28447;48.682;9.022;2023-12-04T10:22:53;30.73;;;14.00;;
42802;SDS011;28447;48.682;9.022;2023-12-04T10:25:19;17.97;;;9.40;;
42802;SDS011;28447;48.682;9.022;2023-12-04T10:27:45;17.67;;;9.23;;
42802;SDS011;28447;48.682;9.022;2023-12-04T10:30:28;17.70;;;9.77;;
42802;SDS011;28447;48.682;9.022;2023-12-04T10:33:06;14.73;;;9.80;;
42802;SDS011;28447;48.682;9.022;2023-12-04T10:35:33;16.47;;;9.23;;
42802;SDS011;28447;48.682;9.022;2023-12-04T10:38:02;18.40;;;9.67;;
42802;SDS011;28447;48.682;9.022;2023-12-04T10:40:30;15.30;;;9.37;;
42802;SDS011;28447;48.682;9.022;2023-12-04T10:43:15;16.60;;;9.60;;
42802;SDS011;28447;48.682;9.022;2023-12-04T10:45:43;14.50;;;8.50;;
42802;SDS011;28447;48.682;9.022;2023-12-04T10:48:10;14.40;;;9.87;;
42802;SDS011;28447;48.682;9.022;2023-12-04T10:50:43;18.60;;;9.33;;
42802;SDS011;28447;48.682;9.022;2023-12-04T10:53:10;16.40;;;9.00;;
42802;SDS011;28447;48.682;9.022;2023-12-04T10:55:37;17.80;;;9.43;;
42802;SDS011;28447;48.682;9.022;2023-12-04T10:58:05;14.70;;;8.20;;
42802;SDS011;28447;48.682;9.022;2023-12-04T11:00:35;19.27;;;9.23;;
42802;SDS011;28447;48.682;9.022;2023-12-04T11:03:03;15.43;;;8.23;;
42802;SDS011;28447;48.682;9.022;2023-12-04T11:05:30;17.07;;;9.13;;
42802;SDS011;28447;48.682;9.022;2023-12-04T11:07:57;13.57;;;8.90;;
42802;SDS011;28447;48.682;9.022;2023-12-04T11:10:27;19.20;;;10.90;;
42802;SDS011;28447;48.682;9.022;2023-12-04T11:13:00;15.40;;;9.13;;
42802;SDS011;28447;48.682;9.022;2023-12-04T11:15:28;16.20;;;9.67;;
42802;SDS011;28447;48.682;9.022;2023-12-04T11:17:58;17.13;;;10.40;;
42802;SDS011;28447;48.682;9.022;2023-12-04T11:20:26;16.67;;;9.80;;
42802;SDS011;28447;48.682;9.022;2023-12-04T11:22:53;14.73;;;10.00;;
42802;SDS011;28447;48.682;9.022;2023-12-04T11:25:19;16.50;;;10.37;;
42802;SDS011;28447;48.682;9.022;2023-12-04T11:27:48;17.60;;;9.47;;
42802;SDS011;28447;48.682;9.022;2023-12-04T11:30:14;20.10;;;11.60;;
42802;SDS011;28447;48.682;9.022;2023-12-04T11:32:50;15.50;;;9.37;;
42802;SDS011;28447;48.682;9.022;2023-12-04T11:35:17;15.03;;;9.10;;
42802;SDS011;28447;48.682;9.022;2023-12-04T11:37:46;16.53;;;10.00;;
42802;SDS011;28447;48.682;9.022;2023-12-04T11:40:12;15.20;;;9.50;;
42802;SDS011;28447;48.682;9.022;2023-12-04T11:42:39;18.80;;;10.90;;
42802;SDS011;28447;48.682;9.022;2023-12-04T11:45:05;17.77;;;10.57;;
42802;SDS011;28447;48.682;9.022;2023-12-04T11:47:48;17.57;;;11.27;;
42802;SDS011;28447;48.682;9.022;2023-12-04T11:50:14;20.20;;;10.67;;
42802;SDS011;28447;48.682;9.022;2023-12-04T11:52:40;26.67;;;15.77;;
42802;SDS011;28447;48.682;9.022;2023-12-04T11:55:07;27.30;;;16.23;;
42802;SDS011;28447;48.682;9.022;2023-12-04T11:57:38;23.80;;;13.43;;
42802;SDS011;28447;48.682;9.022;2023-12-04T12:00:18;22.97;;;13.30;;
42802;SDS011;28447;48.682;9.022;2023-12-04T12:03:00;17.20;;;10.00;;
42802;SDS011;28447;48.682;9.022;2023-12-04T12:05:27;18.43;;;10.50;;
42802;SDS011;28447;48.682;9.022;2023-12-04T12:07:53;14.50;;;9.50;;
42802;SDS011;28447;48.682;9.022;2023-12-04T12:10:19;14.30;;;9.37;;
42802;SDS011;28447;48.682;9.022;2023-12-04T12:12:45;14.37;;;9.30;;
42802;SDS011;28447;48.682;9.022;2023-12-04T12:15:13;17.17;;;9.40;;
42802;SDS011;28447;48.682;9.022;2023-12-04T12:17:39;16.97;;;10.20;;
42802;SDS011;28447;48.682;9.022;2023-12-04T12:20:06;13.70;;;9.83;;
42802;SDS011;28447;48.682;9.022;2023-12-04T12:22:36;15.57;;;9.73;;
42802;SDS011;28447;48.682;9.022;2023-12-04T12:25:06;18.30;;;9.67;;
42802;SDS011;28447;48.682;9.022;2023-12-04T12:27:32;13.67;;;9.00;;
42802;SDS011;28447;48.682;9.022;2023-12-04T12:29:58;15.50;;;9.80;;
42802;SDS011;28447;48.682;9.022;2023-12-04T12:32:25;16.87;;;10.50;;
42802;SDS011;28447;48.682;9.022;2023-12-04T12:34:51;17.97;;;10.47;;
42802;SDS011;28447;48.682;9.022;2023-12-04T12:37:17;13.40;;;9.27;;
42802;SDS011;28447;48.682;9.022;2023-12-04T12:39:44;13.47;;;9.50;;
42802;SDS011;28447;48.682;9.022;2023-12-04T12:42:10;14.70;;;9.57;;
42802;SDS011;28447;48.682;9.022;2023-12-04T12:44:39;17.93;;;10.37;;
42802;SDS011;28447;48.682;9.022;2023-12-04T12:47:08;17.00;;;10.20;;
42802;SDS011;28447;48.682;9.022;2023-12-04T12:49:34;17.70;;;10.77;;
42802;SDS011;28447;48.682;9.022;2023-12-04T12:52:02;19.03;;;11.63;;
42802;SDS011;28447;48.682;9.022;2023-12-04T12:54:28;14.20;;;10.37;;
42802;SDS011;28447;48.682;9.022;2023-12-04T12:56:58;13.87;;;9.50;;
42802;SDS011;28447;48.682;9.022;2023-12-04T12:59:24;17.70;;;11.40;;
42802;SDS011;28447;48.682;9.022;2023-12-04T13:01:52;20.53;;;13.07;;
42802;SDS011;28447;48.682;9.022;2023-12-04T13:04:18;20.20;;;12.90;;
42802;SDS011;28447;48.682;9.022;2023-12-04T13:06:44;25.23;;;13.00;;
42802;SDS011;28447;48.682;9.022;2023-12-04T13:09:11;19.47;;;12.80;;
42802;SDS011;28447;48.682;9.022;2023-12-04T13:11:46;20.20;;;12.50;;
42802;SDS011;28447;48.682;9.022;2023-12-04T13:14:12;20.40;;;12.87;;
42802;SDS011;28447;48.682;9.022;2023-12-04T13:16:38;22.67;;;13.67;;
42802;SDS011;28447;48.682;9.022;2023-12-04T13:19:05;19.80;;;13.20;;
42802;SDS011;28447;48.682;9.022;2023-12-04T13:21:31;22.73;;;13.13;;
42802;SDS011;28447;48.682;9.022;2023-12-04T13:23:57;17.83;;;11.63;;
42802;SDS011;28447;48.682;9.022;2023-12-04T13:26:23;22.73;;;11.77;;
42802;SDS011;28447;48.682;9.022;2023-12-04T13:28:49;26.20;;;12.93;;
42802;SDS011;28447;48.682;9.022;2023-12-04T13:31:16;18.50;;;11.83;;
42802;SDS011;28447;48.682;9.022;2023-12-04T13:33:42;21.93;;;14.07;;
42802;SDS011;28447;48.682;9.022;2023-12-04T13:36:11;18.97;;;12.03;;
42802;SDS011;28447;48.682;9.022;2023-12-04T13:38:37;17.07;;;11.10;;
42802;SDS011;28447;48.682;9.022;2023-12-04T13:41:03;16.90;;;10.57;;
42802;SDS011;28447;48.682;9.022;2023-12-04T13:43:58;23.47;;;11.23;;
42802;SDS011;28447;48.682;9.022;2023-12-04T13:46:25;18.10;;;10.67;;
42802;SDS011;28447;48.682;9.022;2023-12-04T13:48:52;15.90;;;10.40;;
42802;SDS011;28447;48.682;9.022;2023-12-04T13:51:18;16.93;;;10.63;;
42802;SDS011;28447;48.682;9.022;2023-12-04T13:53:45;21.90;;;11.90;;
42802;SDS011;28447;48.682;9.022;2023-12-04T13:56:14;17.90;;;10.67;;
42802;SDS011;28447;48.682;9.022;2023-12-04T13:58:49;17.37;;;10.40;;
42802;SDS011;28447;48.682;9.022;2023-12-04T14:01:35;20.67;;;11.93;;
42802;SDS011;28447;48.682;9.022;2023-12-04T14:04:06;19.53;;;10.70;;
42802;SDS011;28447;48.682;9.022;2023-12-04T14:06:34;22.90;;;12.40;;
42802;SDS011;28447;48.682;9.022;2023-12-04T14:09:00;18.63;;;10.67;;
42802;SDS011;28447;48.682;9.022;2023-12-04T14:11:26;16.20;;;9.40;;
42802;SDS011;28447;48.682;9.022;2023-12-04T14:14:15;20.53;;;12.50;;
42802;SDS011;28447;48.682;9.022;2023-12-04T14:16:44;20.30;;;12.57;;
42802;SDS011;28447;48.682;9.022;2023-12-04T14:19:12;21.60;;;12.60;;
42802;SDS011;28447;48.682;9.022;2023-12-04T14:21:40;18.20;;;12.00;;
42802;SDS011;28447;48.682;9.022;2023-12-04T14:24:06;18.07;;;11.17;;
42802;SDS011;28447;48.682;9.022;2023-12-04T14:26:32;20.63;;;11.77;;
42802;SDS011;28447;48.682;9.022;2023-12-04T14:28:58;19.37;;;12.13;;
42802;SDS011;28447;48.682;9.022;2023-12-04T14:31:26;20.13;;;13.13;;
42802;SDS011;28447;48.682;9.022;2023-12-04T14:33:52;25.30;;;13.60;;
42802;SDS011;28447;48.682;9.022;2023-12-04T14:36:18;24.67;;;15.87;;
42802;SDS011;28447;48.682;9.022;2023-12-04T14:38:44;27.77;;;15.03;;
42802;SDS011;28447;48.682;9.022;2023-12-04T14:41:10;25.33;;;12.50;;
42802;SDS011;28447;48.682;9.022;2023-12-04T14:43:36;19.97;;;11.53;;
42802;SDS011;28447;48.682;9.022;2023-12-04T14:46:03;20.90;;;12.83;;
42802;SDS011;28447;48.682;9.022;2023-12-04T14:48:30;21.47;;;12.17;;
42802;SDS011;28447;48.682;9.022;2023-12-04T14:50:56;20.87;;;11.23;;
42802;SDS011;28447;48.682;9.022;2023-12-04T14:53:22;18.70;;;13.17;;
42802;SDS011;28447;48.682;9.022;2023-12-04T14:55:54;22.10;;;12.53;;
42802;SDS011;28447;48.682;9.022;2023-12-04T14:58:23;16.63;;;10.50;;
42802;SDS011;28447;48.682;9.022;2023-12-04T15:01:12;18.60;;;11.40;;
42802;SDS011;28447;48.682;9.022;2023-12-04T15:03:58;14.53;;;9.57;;
42802;SDS011;28447;48.682;9.022;2023-12-04T15:06:42;14.10;;;9.20;;
42802;SDS011;28447;48.682;9.022;2023-12-04T15:09:27;15.20;;;9.80;;
42802;SDS011;28447;48.682;9.022;2023-12-04T15:12:11;17.53;;;10.63;;
42802;SDS011;28447;48.682;9.022;2023-12-04T15:14:37;22.20;;;12.10;;
42802;SDS011;28447;48.682;9.022;2023-12-04T15:17:38;18.13;;;12.10;;
42802;SDS011;28447;48.682;9.022;2023-12-04T15:20:15;18.90;;;12.17;;
42802;SDS011;28447;48.682;9.022;2023-12-04T15:22:57;17.00;;;12.20;;
42802;SDS011;28447;48.682;9.022;2023-12-04T15:25:23;19.20;;;12.13;;
42802;SDS011;28447;48.682;9.022;2023-12-04T15:27:49;25.87;;;14.27;;
42802;SDS011;28447;48.682;9.022;2023-12-04T15:30:16;22.30;;;13.80;;
42802;SDS011;28447;48.682;9.022;2023-12-04T15:32:42;20.10;;;12.70;;
42802;SDS011;28447;48.682;9.022;2023-12-04T15:35:08;19.23;;;11.63;;
42802;SDS011;28447;48.682;9.022;2023-12-04T15:37:34;21.40;;;11.87;;
42802;SDS011;28447;48.682;9.022;2023-12-04T15:40:00;17.77;;;11.60;;
42802;SDS011;28447;48.682;9.022;2023-12-04T15:42:26;16.80;;;11.37;;
42802;SDS011;28447;48.682;9.022;2023-12-04T15:44:56;19.27;;;12.53;;
42802;SDS011;28447;48.682;9.022;2023-12-04T15:47:28;20.97;;;12.73;;
42802;SDS011;28447;48.682;9.022;2023-12-04T15:49:57;18.67;;;13.80;;
42802;SDS011;28447;48.682;9.022;2023-12-04T15:52:28;21.73;;;13.53;;
42802;SDS011;28447;48.682;9.022;2023-12-04T15:54:54;23.10;;;13.53;;
42802;SDS011;28447;48.682;9.022;2023-12-04T15:57:20;21.63;;;13.23;;
42802;SDS011;28447;48.682;9.022;2023-12-04T15:59:46;19.00;;;12.17;;
42802;SDS011;28447;48.682;9.022;2023-12-04T16:02:12;20.20;;;12.93;;
42802;SDS011;28447;48.682;9.022;2023-12-04T16:04:38;20.43;;;14.17;;
42802;SDS011;28447;48.682;9.022;2023-12-04T16:07:05;21.53;;;13.80;;
42802;SDS011;28447;48.682;9.022;2023-12-04T16:09:31;21.87;;;15.43;;
42802;SDS011;28447;48.682;9.022;2023-12-04T16:11:57;40.00;;;21.67;;
42802;SDS011;28447;48.682;9.022;2023-12-04T16:14:23;38.47;;;21.53;;
42802;SDS011;28447;48.682;9.022;2023-12-04T16:16:49;32.90;;;18.33;;
42802;SDS011;28447;48.682;9.022;2023-12-04T16:19:15;26.73;;;14.73;;
42802;SDS011;28447;48.682;9.022;2023-12-04T16:21:41;19.90;;;14.03;;
42802;SDS011;28447;48.682;9.022;2023-12-04T16:24:07;20.80;;;13.03;;
42802;SDS011;28447;48.682;9.022;2023-12-04T16:26:36;22.13;;;13.30;;
42802;SDS011;28447;48.682;9.022;2023-12-04T16:29:02;21.30;;;13.53;;
42802;SDS011;28447;48.682;9.022;2023-12-04T16:31:28;22.97;;;14.00;;
42802;SDS011;28447;48.682;9.022;2023-12-04T16:33:54;21.60;;;13.33;;
42802;SDS011;28447;48.682;9.022;2023-12-04T16:36:20;24.20;;;14.17;;
42802;SDS011;28447;48.682;9.022;2023-12-04T16:38:46;24.20;;;14.13;;
42802;SDS011;28447;48.682;9.022;2023-12-04T16:41:12;23.17;;;14.03;;
42802;SDS011;28447;48.682;9.022;2023-12-04T16:43:39;28.67;;;15.77;;
42802;SDS011;28447;48.682;9.022;2023-12-04T16:46:07;25.33;;;14.20;;
42802;SDS011;28447;48.682;9.022;2023-12-04T16:48:33;18.90;;;13.90;;
42802;SDS011;28447;48.682;9.022;2023-12-04T16:50:59;23.63;;;14.83;;
42802;SDS011;28447;48.682;9.022;2023-12-04T16:53:25;25.93;;;15.50;;
42802;SDS011;28447;48.682;9.022;2023-12-04T16:55:51;24.83;;;15.03;;
42802;SDS011;28447;48.682;9.022;2023-12-04T16:58:17;29.37;;;15.97;;
42802;SDS011;28447;48.682;9.022;2023-12-04T17:00:45;26.70;;;15.97;;
42802;SDS011;28447;48.682;9.022;2023-12-04T17:03:11;24.23;;;15.90;;
42802;SDS011;28447;48.682;9.022;2023-12-04T17:05:39;30.53;;;16.03;;
42802;SDS011;28447;48.682;9.022;2023-12-04T17:08:05;24.87;;;14.80;;
42802;SDS011;28447;48.682;9.022;2023-12-04T17:10:34;22.57;;;15.60;;
42802;SDS011;28447;48.682;9.022;2023-12-04T17:13:08;23.10;;;14.83;;
42802;SDS011;28447;48.682;9.022;2023-12-04T17:15:34;24.70;;;14.70;;
42802;SDS011;28447;48.682;9.022;2023-12-04T17:18:00;23.90;;;14.37;;
42802;SDS011;28447;48.682;9.022;2023-12-04T17:20:29;26.93;;;15.70;;
42802;SDS011;28447;48.682;9.022;2023-12-04T17:22:55;28.83;;;16.23;;
42802;SDS011;28447;48.682;9.022;2023-12-04T17:25:24;28.30;;;16.47;;
42802;SDS011;28447;48.682;9.022;2023-12-04T17:27:50;28.53;;;16.23;;
42802;SDS011;28447;48.682;9.022;2023-12-04T17:30:16;28.60;;;16.53;;
42802;SDS011;28447;48.682;9.022;2023-12-04T17:32:43;26.73;;;15.33;;
42802;SDS011;28447;48.682;9.022;2023-12-04T17:35:09;16.60;;;11.43;;
42802;SDS011;28447;48.682;9.022;2023-12-04T17:37:36;16.90;;;10.77;;
42802;SDS011;28447;48.682;9.022;2023-12-04T17:40:02;18.13;;;10.73;;
42802;SDS011;28447;48.682;9.022;2023-12-04T17:42:34;19.27;;;10.93;;
42802;SDS011;28447;48.682;9.022;2023-12-04T17:45:01;20.37;;;12.00;;
42802;SDS011;28447;48.682;9.022;2023-12-04T17:47:30;23.13;;;14.40;;
42802;SDS011;28447;48.682;9.022;2023-12-04T17:49:56;20.63;;;12.33;;
42802;SDS011;28447;48.682;9.022;2023-12-04T17:52:22;22.43;;;12.30;;
42802;SDS011;28447;48.682;9.022;2023-12-04T17:54:48;21.70;;;11.97;;
42802;SDS011;28447;48.682;9.022;2023-12-04T17:57:14;23.10;;;13.00;;
42802;SDS011;28447;48.682;9.022;2023-12-04T17:59:40;23.50;;;14.37;;
42802;SDS011;28447;48.682;9.022;2023-12-04T18:02:07;27.07;;;13.77;;
42802;SDS011;28447;48.682;9.022;2023-12-04T18:04:34;21.53;;;11.80;;
42802;SDS011;28447;48.682;9.022;2023-12-04T18:07:00;21.97;;;12.37;;
42802;SDS011;28447;48.682;9.022;2023-12-04T18:09:28;18.03;;;11.60;;
42802;SDS011;28447;48.682;9.022;2023-12-04T18:11:54;24.20;;;14.57;;
42802;SDS011;28447;48.682;9.022;2023-12-04T18:14:20;28.40;;;16.43;;
42802;SDS011;28447;48.682;9.022;2023-12-04T18:16:46;29.53;;;16.13;;
42802;SDS011;28447;48.682;9.022;2023-12-04T18:19:12;24.57;;;14.23;;
42802;SDS011;28447;48.682;9.022;2023-12-04T18:21:38;27.40;;;15.43;;
42802;SDS011;28447;48.682;9.022;2023-12-04T18:24:04;24.73;;;15.10;;
42802;SDS011;28447;48.682;9.022;2023-12-04T18:26:30;25.70;;;15.00;;
42802;SDS011;28447;48.682;9.022;2023-12-04T18:28:57;39.87;;;22.40;;
42802;SDS011;28447;48.682;9.022;2023-12-04T18:31:23;33.57;;;21.90;;
42802;SDS011;28447;48.682;9.022;2023-12-04T18:33:49;36.10;;;20.33;;
42802;SDS011;28447;48.682;9.022;2023-12-04T18:36:18;31.50;;;18.87;;
42802;SDS011;28447;48.682;9.022;2023-12-04T18:41:16;29.77;;;15.50;;
42802;SDS011;28447;48.682;9.022;2023-12-04T18:43:42;29.10;;;15.60;;
42802;SDS011;28447;48.682;9.022;2023-12-04T18:46:08;34.30;;;17.30;;
42802;SDS011;28447;48.682;9.022;2023-12-04T18:48:35;36.10;;;17.77;;
42802;SDS011;28447;48.682;9.022;2023-12-04T18:51:01;33.30;;;17.50;;
42802;SDS011;28447;48.682;9.022;2023-12-04T18:53:28;33.53;;;18.30;;
42802;SDS011;28447;48.682;9.022;2023-12-04T18:55:54;36.63;;;20.03;;
42802;SDS011;28447;48.682;9.022;2023-12-04T18:58:23;41.73;;;21.83;;
42802;SDS011;28447;48.682;9.022;2023-12-04T19:00:58;36.23;;;18.90;;
42802;SDS011;28447;48.682;9.022;2023-12-04T19:03:23;34.20;;;18.63;;
42802;SDS011;28447;48.682;9.022;2023-12-04T19:05:49;44.07;;;23.50;;
42802;SDS011;28447;48.682;9.022;2023-12-04T19:08:16;36.80;;;19.37;;
42802;SDS011;28447;48.682;9.022;2023-12-04T19:10:42;33.20;;;19.60;;
42802;SDS011;28447;48.682;9.022;2023-12-04T19:13:09;38.50;;;21.80;;
42802;SDS011;28447;48.682;9.022;2023-12-04T19:15:35;44.43;;;20.30;;
42802;SDS011;28447;48.682;9.022;2023-12-04T19:18:01;34.77;;;19.67;;
42802;SDS011;28447;48.682;9.022;2023-12-04T19:20:28;23.10;;;15.30;;
42802;SDS011;28447;48.682;9.022;2023-12-04T19:22:55;21.90;;;14.33;;
42802;SDS011;28447;48.682;9.022;2023-12-04T19:25:24;25.27;;;14.70;;
42802;SDS011;28447;48.682;9.022;2023-12-04T19:27:51;23.73;;;14.83;;